Time;durP1;ratioP1;P1;durP2;ratioP2;P2;SDS_P1;SDS_P2;PMS_P1;PMS_P2;Temp;Humidity;BMP_temperature;BMP_pressure;BME280_temperature;BME280_humidity;BME280_pressure;Samples;Min_cycle;Max_cycle;Signal;HPM_P1;HPM_P2
2024/01/08 00:00:46;;;;;;;5.82;2.47;;;1.00;99.90;;;;;;5027043;28;20056;-83
2024/01/08 00:03:12;;;;;;;4.20;2.75;;;0.90;99.90;;;;;;5030251;28;20032;-83
2024/01/08 00:05:38;;;;;;;4.60;2.88;;;0.90;99.90;;;;;;5031503;28;20036;-84
2024/01/08 00:08:05;;;;;;;3.67;2.63;;;0.90;99.90;;;;;;5030790;28;20040;-84
2024/01/08 00:10:31;;;;;;;3.13;2.50;;;0.90;99.90;;;;;;5027324;28;20124;-83
2024/01/08 00:12:56;;;;;;;3.75;2.28;;;0.90;99.90;;;;;;5025057;28;20167;-82
2024/01/08 00:15:22;;;;;;;2.65;2.20;;;0.80;99.90;;;;;;5024355;28;20033;-83
2024/01/08 00:17:48;;;;;;;2.70;2.45;;;0.80;99.90;;;;;;5029540;28;20382;-84
2024/01/08 00:20:13;;;;;;;4.93;2.35;;;0.80;99.90;;;;;;5030102;28;20029;-82
2024/01/08 00:22:39;;;;;;;4.90;2.78;;;0.80;99.90;;;;;;5028375;28;20071;-83
2024/01/08 00:25:05;;;;;;;5.13;2.83;;;0.80;99.90;;;;;;5027286;28;20497;-82
2024/01/08 00:27:30;;;;;;;3.70;2.70;;;0.80;99.90;;;;;;5029931;28;20110;-82
2024/01/08 00:29:56;;;;;;;3.83;2.88;;;0.80;99.90;;;;;;5029552;28;20073;-82
2024/01/08 00:32:21;;;;;;;3.92;2.30;;;0.90;99.90;;;;;;5030273;28;20109;-82
2024/01/08 00:34:47;;;;;;;2.67;2.45;;;0.80;99.90;;;;;;5027948;28;20036;-83
2024/01/08 00:37:12;;;;;;;2.50;2.08;;;0.80;99.90;;;;;;5019765;28;20175;-83
2024/01/08 00:39:38;;;;;;;4.40;2.70;;;0.70;99.90;;;;;;5025510;28;20524;-83
2024/01/08 00:42:04;;;;;;;2.45;2.08;;;0.70;99.90;;;;;;5030799;28;20574;-83
2024/01/08 00:44:29;;;;;;;3.47;2.70;;;0.70;99.90;;;;;;5028516;28;20551;-82
2024/01/08 00:46:55;;;;;;;3.60;2.80;;;0.70;99.90;;;;;;5025727;28;20477;-82
2024/01/08 00:49:20;;;;;;;3.35;2.38;;;0.70;99.90;;;;;;5030041;28;20040;-82
2024/01/08 00:51:46;;;;;;;5.88;2.90;;;0.80;99.90;;;;;;5029249;28;20040;-82
2024/01/08 00:54:12;;;;;;;3.35;2.60;;;0.70;99.90;;;;;;5029505;28;20354;-81
2024/01/08 00:56:37;;;;;;;3.03;2.30;;;0.70;99.90;;;;;;5010293;28;20033;-84
2024/01/08 00:59:03;;;;;;;2.63;2.35;;;0.70;99.90;;;;;;5021780;28;20025;-83
2024/01/08 01:01:29;;;;;;;2.63;2.40;;;0.80;99.90;;;;;;5029612;28;20029;-83
2024/01/08 01:03:54;;;;;;;3.70;2.85;;;0.80;99.90;;;;;;5029880;28;20025;-83
2024/01/08 01:06:21;;;;;;;2.35;2.10;;;0.70;99.90;;;;;;5028263;28;20421;-82
2024/01/08 01:08:47;;;;;;;2.90;2.47;;;0.80;99.90;;;;;;5026253;28;20025;-83
2024/01/08 01:11:14;;;;;;;4.20;2.50;;;0.80;99.90;;;;;;5031006;28;20455;-83
2024/01/08 01:13:40;;;;;;;4.22;2.53;;;0.80;99.90;;;;;;5030398;28;20116;-84
2024/01/08 01:16:06;;;;;;;3.10;2.80;;;0.90;99.90;;;;;;5031963;28;20040;-83
2024/01/08 01:18:33;;;;;;;3.83;3.15;;;0.90;99.90;;;;;;5032692;28;20029;-83
2024/01/08 01:20:58;;;;;;;3.72;2.88;;;0.90;99.90;;;;;;5032300;28;20048;-84
2024/01/08 01:23:24;;;;;;;3.40;2.85;;;0.90;99.90;;;;;;5032530;28;20446;-84
2024/01/08 01:25:50;;;;;;;3.47;3.08;;;0.90;99.90;;;;;;5028781;28;20084;-83
2024/01/08 01:28:15;;;;;;;3.03;2.60;;;0.90;99.90;;;;;;5016058;28;20116;-83
2024/01/08 01:30:41;;;;;;;4.05;3.10;;;0.80;99.90;;;;;;5027193;28;20089;-83
2024/01/08 01:33:06;;;;;;;3.08;2.78;;;0.80;99.90;;;;;;5022597;28;20068;-83
2024/01/08 01:35:32;;;;;;;3.70;3.40;;;0.80;99.90;;;;;;5027557;28;20030;-83
2024/01/08 01:37:58;;;;;;;3.47;3.17;;;0.80;99.90;;;;;;5029357;28;20345;-84
2024/01/08 01:40:25;;;;;;;4.45;4.05;;;0.70;99.90;;;;;;5028377;28;20045;-83
2024/01/08 01:42:54;;;;;;;4.65;3.03;;;0.70;99.90;;;;;;5026107;28;20030;-83
2024/01/08 01:45:23;;;;;;;4.10;3.70;;;0.60;99.90;;;;;;5028323;28;20520;-83
2024/01/08 01:47:55;;;;;;;5.93;3.50;;;0.60;99.90;;;;;;5028392;28;20053;-83
2024/01/08 01:50:24;;;;;;;3.35;3.05;;;0.70;99.90;;;;;;5036093;22;20057;-83
2024/01/08 01:52:50;;;;;;;5.65;3.30;;;1.50;99.90;;;;;;5028577;28;20026;-83
2024/01/08 01:55:16;;;;;;;4.35;3.42;;;0.60;99.90;;;;;;5029238;28;20025;-83
2024/01/08 01:57:43;;;;;;;3.35;3.05;;;0.60;99.90;;;;;;5019830;28;20022;-83
2024/01/08 02:00:09;;;;;;;3.90;3.53;;;0.60;99.90;;;;;;5029178;28;20072;-83
2024/01/08 02:02:36;;;;;;;4.82;3.25;;;0.60;99.90;;;;;;5028373;28;20025;-84
2024/01/08 02:05:02;;;;;;;6.22;3.50;;;0.60;99.90;;;;;;5028963;28;20513;-82
2024/01/08 02:07:29;;;;;;;4.22;3.05;;;0.60;99.90;;;;;;5022166;28;20113;-83
2024/01/08 02:09:55;;;;;;;7.90;3.40;;;0.60;99.90;;;;;;5026627;28;20052;-84
2024/01/08 02:12:21;;;;;;;3.55;3.13;;;0.60;99.90;;;;;;5029678;28;20377;-84
2024/01/08 02:14:46;;;;;;;4.32;3.10;;;0.60;99.90;;;;;;5028378;28;20033;-83
2024/01/08 02:17:12;;;;;;;4.95;3.53;;;0.60;99.90;;;;;;5024818;28;20451;-84
2024/01/08 02:19:38;;;;;;;3.60;3.25;;;0.60;99.90;;;;;;5028309;28;20033;-83
2024/01/08 02:22:04;;;;;;;3.92;3.63;;;0.60;99.90;;;;;;5032444;28;20116;-83
2024/01/08 02:24:29;;;;;;;4.32;3.22;;;0.60;99.90;;;;;;5032333;28;20370;-83
2024/01/08 02:26:58;;;;;;;4.20;3.25;;;0.60;99.90;;;;;;5028630;28;20037;-83
2024/01/08 02:29:27;;;;;;;3.75;3.38;;;0.50;99.90;;;;;;5028271;28;20045;-83
2024/01/08 02:31:52;;;;;;;3.88;3.55;;;0.60;99.90;;;;;;5032713;28;20029;-83
2024/01/08 02:34:18;;;;;;;3.05;2.75;;;0.60;99.90;;;;;;5031768;28;20033;-82
2024/01/08 02:36:44;;;;;;;3.33;3.03;;;0.50;99.90;;;;;;5031222;28;20084;-84
2024/01/08 02:39:09;;;;;;;3.63;3.17;;;0.50;99.90;;;;;;5029436;28;20393;-83
2024/01/08 02:41:35;;;;;;;3.22;2.70;;;0.50;99.90;;;;;;5032252;28;20481;-83
2024/01/08 02:44:00;;;;;;;3.38;3.08;;;0.50;99.90;;;;;;5031361;28;20025;-83
2024/01/08 02:46:26;;;;;;;4.20;3.17;;;0.50;99.90;;;;;;5033323;28;20022;-83
2024/01/08 02:48:51;;;;;;;5.03;3.42;;;0.50;99.90;;;;;;5032010;28;20160;-83
2024/01/08 02:51:17;;;;;;;3.58;3.28;;;0.60;99.90;;;;;;5031212;28;20041;-82
2024/01/08 02:53:42;;;;;;;6.15;2.92;;;0.50;99.90;;;;;;5026574;28;20148;-83
2024/01/08 02:56:18;;;;;;;6.03;3.50;;;0.50;99.90;;;;;;5032254;28;20033;-82
2024/01/08 02:58:44;;;;;;;3.85;3.53;;;0.50;99.90;;;;;;5032129;28;20037;-83
2024/01/08 03:01:09;;;;;;;3.85;3.45;;;0.50;99.90;;;;;;5031802;28;20038;-83
2024/01/08 03:03:35;;;;;;;5.90;3.80;;;0.50;99.90;;;;;;5028295;28;20048;-83
2024/01/08 03:06:00;;;;;;;3.80;3.40;;;0.50;99.90;;;;;;5031171;28;20029;-83
2024/01/08 03:08:26;;;;;;;5.57;3.75;;;0.50;99.90;;;;;;5031457;28;20030;-83
2024/01/08 03:10:52;;;;;;;4.07;3.50;;;0.40;99.90;;;;;;5031296;28;20405;-83
2024/01/08 03:13:17;;;;;;;4.13;3.30;;;0.50;99.90;;;;;;5030872;28;20021;-83
2024/01/08 03:15:43;;;;;;;4.47;3.40;;;0.40;99.90;;;;;;5030463;28;20045;-83
2024/01/08 03:18:08;;;;;;;5.25;2.92;;;0.40;99.90;;;;;;5029345;28;20478;-83
2024/01/08 03:20:34;;;;;;;3.58;3.28;;;0.40;99.90;;;;;;5030680;28;20116;-83
2024/01/08 03:22:59;;;;;;;3.92;3.17;;;0.40;99.90;;;;;;5029211;28;20120;-83
2024/01/08 03:25:25;;;;;;;4.60;3.38;;;0.30;99.90;;;;;;5031754;28;20080;-83
2024/01/08 03:27:50;;;;;;;4.20;3.70;;;0.40;99.90;;;;;;5029438;28;20478;-83
2024/01/08 03:30:16;;;;;;;3.78;3.30;;;0.30;99.90;;;;;;5023798;28;20030;-83
2024/01/08 03:32:41;;;;;;;4.13;3.28;;;0.40;99.90;;;;;;5032098;28;20488;-83
2024/01/08 03:35:07;;;;;;;5.13;3.03;;;0.30;99.90;;;;;;5030997;28;20551;-84
2024/01/08 03:37:33;;;;;;;5.15;3.38;;;0.40;99.90;;;;;;5030330;28;20026;-83
2024/01/08 03:39:58;;;;;;;6.63;3.67;;;0.40;99.90;;;;;;5028113;28;20128;-83
2024/01/08 03:42:24;;;;;;;4.88;4.20;;;0.40;99.90;;;;;;5031510;28;20461;-83
2024/01/08 03:44:50;;;;;;;3.83;3.08;;;0.30;99.90;;;;;;5031273;28;20116;-83
2024/01/08 03:47:16;;;;;;;3.90;3.40;;;0.40;99.90;;;;;;5031212;28;20116;-84
2024/01/08 03:49:41;;;;;;;4.82;3.42;;;0.40;99.90;;;;;;5029166;28;20048;-82
2024/01/08 03:52:07;;;;;;;4.10;3.70;;;0.40;99.90;;;;;;5024611;28;20120;-83
2024/01/08 03:54:32;;;;;;;5.07;3.65;;;0.30;99.90;;;;;;5030142;28;20055;-83
2024/01/08 03:56:58;;;;;;;5.65;3.67;;;0.60;99.90;;;;;;5031576;28;20397;-83
2024/01/08 03:59:23;;;;;;;8.57;3.10;;;0.30;99.90;;;;;;5030214;28;20044;-84
2024/01/08 04:01:50;;;;;;;4.20;3.75;;;0.30;99.90;;;;;;5030624;28;20053;-82
2024/01/08 04:04:16;;;;;;;3.25;2.92;;;0.30;99.90;;;;;;5023310;28;20034;-83
2024/01/08 04:06:41;;;;;;;5.00;3.58;;;0.30;99.90;;;;;;5031673;28;20076;-83
2024/01/08 04:09:07;;;;;;;4.25;3.67;;;0.30;99.90;;;;;;5025658;28;20036;-83
2024/01/08 04:11:33;;;;;;;5.75;3.50;;;0.30;99.90;;;;;;5030595;28;20029;-84
2024/01/08 04:13:58;;;;;;;6.63;3.63;;;0.30;99.90;;;;;;5031137;28;20025;-83
2024/01/08 04:16:24;;;;;;;5.47;3.13;;;0.20;99.90;;;;;;5021545;28;20458;-83
2024/01/08 04:18:49;;;;;;;5.70;3.20;;;0.20;99.90;;;;;;5030997;28;20029;-83
2024/01/08 04:21:18;;;;;;;6.70;3.42;;;0.20;99.90;;;;;;5030587;28;20025;-84
2024/01/08 04:23:44;;;;;;;6.10;3.83;;;0.10;99.90;;;;;;5030793;28;20059;-83
2024/01/08 04:26:16;;;;;;;6.40;3.45;;;0.00;99.90;;;;;;5030857;28;20033;-84
2024/01/08 04:28:43;;;;;;;5.93;3.60;;;0.00;99.90;;;;;;5025418;28;20030;-84
2024/01/08 04:31:19;;;;;;;5.78;3.67;;;0.00;99.90;;;;;;5029241;28;20132;-84
2024/01/08 04:33:45;;;;;;;5.45;3.67;;;0.00;99.90;;;;;;5029103;28;20026;-84
2024/01/08 04:36:15;;;;;;;6.07;3.72;;;0.00;99.90;;;;;;5029784;28;20033;-83
2024/01/08 04:38:41;;;;;;;5.50;3.93;;;0.10;99.90;;;;;;5028477;28;20034;-83
2024/01/08 04:41:07;;;;;;;7.35;4.15;;;0.10;99.90;;;;;;5028790;28;20128;-82
2024/01/08 04:43:33;;;;;;;4.90;3.85;;;0.00;99.90;;;;;;5030537;28;20036;-81
2024/01/08 04:45:58;;;;;;;8.52;3.92;;;0.00;99.90;;;;;;5030031;28;20033;-84
2024/01/08 04:48:24;;;;;;;6.07;3.58;;;0.00;99.90;;;;;;5029311;28;20025;-84
2024/01/08 04:50:49;;;;;;;6.15;3.65;;;0.00;99.90;;;;;;5028590;28;20144;-83
2024/01/08 04:53:15;;;;;;;6.93;3.83;;;0.00;99.90;;;;;;5026763;28;20037;-82
2024/01/08 04:55:41;;;;;;;5.05;4.05;;;-0.10;99.90;;;;;;5029662;28;20171;-83
2024/01/08 04:58:06;;;;;;;4.88;3.22;;;0.00;99.90;;;;;;5028983;28;20025;-82
2024/01/08 05:00:32;;;;;;;6.40;4.85;;;-0.10;99.90;;;;;;5029823;28;20152;-83
2024/01/08 05:02:57;;;;;;;7.38;3.70;;;-0.10;99.90;;;;;;5029884;28;20552;-83
2024/01/08 05:05:23;;;;;;;6.18;3.85;;;0.60;99.90;;;;;;5020768;28;20044;-83
2024/01/08 05:07:48;;;;;;;5.97;4.15;;;-0.10;99.90;;;;;;5028544;28;20025;-85
2024/01/08 05:10:14;;;;;;;5.03;4.15;;;0.00;99.90;;;;;;5028203;28;20092;-84
2024/01/08 05:12:40;;;;;;;5.63;3.67;;;0.10;99.90;;;;;;5028742;28;20041;-83
2024/01/08 05:15:06;;;;;;;3.92;3.40;;;0.00;99.90;;;;;;5028302;28;20535;-83
2024/01/08 05:17:31;;;;;;;4.65;3.60;;;0.10;99.90;;;;;;5025673;28;20017;-83
2024/01/08 05:19:57;;;;;;;6.72;3.88;;;0.20;99.90;;;;;;5028437;28;20547;-83
2024/01/08 05:22:23;;;;;;;5.90;4.03;;;0.20;99.90;;;;;;5029381;28;20457;-83
2024/01/08 05:24:49;;;;;;;4.72;3.20;;;0.20;99.90;;;;;;5028585;28;20029;-83
2024/01/08 05:27:15;;;;;;;5.65;4.15;;;0.30;99.90;;;;;;5028755;28;20034;-83
2024/01/08 05:29:41;;;;;;;5.18;3.78;;;0.30;99.90;;;;;;5022659;28;20040;-85
2024/01/08 05:32:06;;;;;;;5.10;4.20;;;0.40;99.90;;;;;;5031258;28;20068;-83
2024/01/08 05:34:32;;;;;;;6.00;3.72;;;0.40;99.90;;;;;;5028825;28;20026;-83
2024/01/08 05:36:58;;;;;;;5.88;4.57;;;0.40;99.90;;;;;;5030180;28;20029;-82
2024/01/08 05:39:23;;;;;;;6.20;4.40;;;0.40;99.90;;;;;;5030366;28;20477;-84
2024/01/08 05:41:49;;;;;;;5.68;4.70;;;0.40;99.90;;;;;;5026931;28;20108;-82
2024/01/08 05:44:15;;;;;;;6.32;4.75;;;0.40;99.90;;;;;;5030075;28;20044;-84
2024/01/08 05:46:42;;;;;;;5.57;4.32;;;0.40;99.90;;;;;;5028564;28;20385;-83
2024/01/08 05:49:07;;;;;;;7.47;4.43;;;0.50;99.90;;;;;;5028818;28;20053;-83
2024/01/08 05:51:33;;;;;;;7.72;4.50;;;0.50;99.90;;;;;;5022892;28;20371;-83
2024/01/08 05:53:58;;;;;;;5.45;4.57;;;0.50;99.90;;;;;;5026961;28;20037;-83
2024/01/08 05:56:24;;;;;;;6.38;5.63;;;0.60;99.90;;;;;;5028532;28;20064;-83
2024/01/08 05:58:50;;;;;;;5.68;4.53;;;0.50;99.90;;;;;;5028687;28;20056;-84
2024/01/08 06:01:17;;;;;;;7.53;4.97;;;0.50;99.90;;;;;;5025248;28;20087;-84
2024/01/08 06:03:43;;;;;;;6.57;4.82;;;0.60;99.90;;;;;;5028849;28;20060;-83
2024/01/08 06:06:12;;;;;;;6.50;4.88;;;0.60;99.90;;;;;;5029272;28;20037;-82
2024/01/08 06:08:40;;;;;;;8.13;5.28;;;0.60;99.90;;;;;;5027514;28;20030;-83
2024/01/08 06:11:06;;;;;;;7.03;5.20;;;0.60;99.90;;;;;;5025448;28;20489;-82
2024/01/08 06:13:31;;;;;;;7.43;5.15;;;0.60;99.90;;;;;;5024813;28;20071;-82
2024/01/08 06:15:57;;;;;;;6.90;5.28;;;0.60;99.90;;;;;;5028360;28;20025;-83
2024/01/08 06:18:24;;;;;;;7.55;4.78;;;0.60;99.90;;;;;;5027947;28;20466;-83
2024/01/08 06:20:49;;;;;;;6.75;4.93;;;0.70;99.90;;;;;;5027772;28;20025;-82
2024/01/08 06:23:15;;;;;;;6.40;5.00;;;0.70;99.90;;;;;;5026336;28;20435;-83
2024/01/08 06:25:41;;;;;;;11.23;5.20;;;0.70;99.90;;;;;;5028467;28;20061;-82
2024/01/08 06:28:06;;;;;;;6.32;4.63;;;0.70;99.90;;;;;;5027823;28;20128;-83
2024/01/08 06:30:32;;;;;;;18.92;8.38;;;0.70;99.90;;;;;;5028166;28;20037;-83
2024/01/08 06:32:58;;;;;;;10.65;6.47;;;0.70;99.90;;;;;;5025053;28;20037;-83
2024/01/08 06:35:23;;;;;;;12.15;6.45;;;0.70;99.90;;;;;;5028405;28;20021;-83
2024/01/08 06:37:49;;;;;;;18.48;7.32;;;0.70;99.90;;;;;;5028992;28;20104;-83
2024/01/08 06:40:15;;;;;;;15.15;7.45;;;0.80;99.90;;;;;;5027769;28;20033;-86
2024/01/08 06:42:40;;;;;;;7.35;5.38;;;0.80;99.90;;;;;;5024137;28;20030;-82
2024/01/08 06:45:06;;;;;;;7.63;5.05;;;0.80;99.90;;;;;;5016221;28;20033;-83
2024/01/08 06:47:33;;;;;;;7.50;5.35;;;0.80;99.90;;;;;;5028282;28;20030;-81
2024/01/08 06:49:59;;;;;;;6.88;5.13;;;0.80;99.90;;;;;;5026210;28;20057;-82
2024/01/08 06:52:24;;;;;;;6.13;5.10;;;0.90;99.90;;;;;;5026324;28;20025;-83
2024/01/08 06:54:50;;;;;;;8.57;5.80;;;0.90;99.90;;;;;;5026732;28;20040;-83
2024/01/08 06:57:15;;;;;;;9.95;5.25;;;0.90;99.90;;;;;;5025729;28;20022;-82
2024/01/08 06:59:41;;;;;;;6.80;5.85;;;0.90;99.90;;;;;;5028273;28;20109;-82
2024/01/08 07:02:06;;;;;;;8.52;5.15;;;0.90;99.90;;;;;;5028197;28;20072;-83
2024/01/08 07:04:32;;;;;;;8.10;6.00;;;0.90;99.90;;;;;;5026911;28;20017;-82
2024/01/08 07:06:58;;;;;;;7.78;5.50;;;0.90;99.90;;;;;;5029768;28;20033;-82
2024/01/08 07:09:24;;;;;;;8.40;5.32;;;1.00;99.90;;;;;;5027979;28;20493;-83
2024/01/08 07:11:50;;;;;;;7.50;5.80;;;1.00;99.90;;;;;;5022915;28;20032;-83
2024/01/08 07:14:18;;;;;;;15.52;7.32;;;1.00;99.90;;;;;;5028155;28;20026;-82
2024/01/08 07:16:43;;;;;;;7.97;5.65;;;1.00;99.90;;;;;;5024423;28;20033;-83
2024/01/08 07:19:09;;;;;;;5.88;4.85;;;1.00;99.90;;;;;;5016733;28;20029;-82
2024/01/08 07:21:35;;;;;;;7.53;4.90;;;1.00;99.90;;;;;;5015501;28;20025;-83
2024/01/08 07:24:00;;;;;;;8.63;5.53;;;1.00;99.90;;;;;;5023513;28;20461;-82
2024/01/08 07:26:26;;;;;;;8.50;5.00;;;1.00;99.90;;;;;;5025713;28;20041;-82
2024/01/08 07:28:52;;;;;;;7.85;5.10;;;1.00;99.90;;;;;;5024622;28;20503;-82
2024/01/08 07:31:17;;;;;;;6.43;4.80;;;1.10;99.90;;;;;;5020772;28;20569;-82
2024/01/08 07:33:43;;;;;;;7.82;5.25;;;1.00;99.90;;;;;;5015887;28;20551;-83
2024/01/08 07:36:09;;;;;;;5.30;4.78;;;1.10;99.90;;;;;;5018831;28;20026;-83
2024/01/08 07:38:35;;;;;;;7.00;4.63;;;1.20;99.90;;;;;;5020055;28;20017;-83
2024/01/08 07:41:00;;;;;;;6.72;5.07;;;1.00;99.90;;;;;;5033384;28;20052;-85
2024/01/08 07:43:26;;;;;;;8.68;4.65;;;1.10;99.90;;;;;;5034085;28;20030;-84
2024/01/08 07:45:52;;;;;;;4.60;3.85;;;1.10;99.90;;;;;;5033479;28;20072;-84
2024/01/08 07:48:18;;;;;;;5.43;4.15;;;1.00;99.90;;;;;;5030718;28;20025;-82
2024/01/08 07:50:45;;;;;;;6.97;4.53;;;1.00;99.90;;;;;;5032135;28;20092;-83
2024/01/08 07:53:10;;;;;;;6.70;3.95;;;1.00;99.90;;;;;;5032708;28;20336;-83
2024/01/08 07:55:36;;;;;;;4.13;3.53;;;1.00;99.90;;;;;;5031761;28;20056;-86
2024/01/08 07:58:02;;;;;;;7.13;4.00;;;1.10;99.90;;;;;;5031793;28;20371;-83
2024/01/08 08:00:28;;;;;;;8.02;5.45;;;1.10;99.90;;;;;;5030540;28;20059;-84
2024/01/08 08:02:54;;;;;;;6.03;5.03;;;1.10;99.90;;;;;;5027752;28;20029;-88
2024/01/08 08:05:19;;;;;;;5.18;4.35;;;1.10;99.90;;;;;;5033690;28;20053;-86
2024/01/08 08:07:45;;;;;;;6.90;4.72;;;1.10;99.90;;;;;;5031566;28;20512;-88
2024/01/08 08:10:11;;;;;;;7.97;4.82;;;1.10;99.90;;;;;;5032978;28;20389;-86
2024/01/08 08:12:37;;;;;;;4.97;4.22;;;1.00;99.90;;;;;;5032880;28;20033;-85
2024/01/08 08:15:03;;;;;;;8.18;4.03;;;1.10;99.90;;;;;;5031203;28;20432;-86
2024/01/08 08:17:29;;;;;;;7.72;5.00;;;1.10;99.90;;;;;;5031593;28;20079;-85
2024/01/08 08:19:55;;;;;;;6.43;4.50;;;1.10;99.90;;;;;;5033899;28;20464;-85
2024/01/08 08:22:21;;;;;;;5.32;4.55;;;1.10;99.90;;;;;;5033947;28;20029;-86
2024/01/08 08:24:47;;;;;;;5.88;4.35;;;1.10;99.90;;;;;;5020596;28;20474;-85
2024/01/08 08:27:13;;;;;;;7.72;4.25;;;1.20;99.90;;;;;;5011960;28;20601;-84
2024/01/08 08:29:41;;;;;;;6.75;4.78;;;1.20;99.90;;;;;;5012835;28;20033;-82
2024/01/08 08:32:08;;;;;;;6.57;3.63;;;1.10;99.90;;;;;;5019951;28;20075;-83
2024/01/08 08:34:34;;;;;;;7.53;4.00;;;1.10;99.90;;;;;;5031391;28;20017;-82
2024/01/08 08:36:59;;;;;;;5.47;4.13;;;1.20;99.90;;;;;;5030807;28;20159;-81
2024/01/08 08:39:25;;;;;;;5.43;4.38;;;1.20;99.90;;;;;;5031484;28;20026;-80
2024/01/08 08:41:50;;;;;;;6.72;3.30;;;1.20;99.90;;;;;;5028339;28;20029;-81
2024/01/08 08:44:17;;;;;;;4.72;3.83;;;1.20;99.90;;;;;;5029639;28;20031;-80
2024/01/08 08:46:44;;;;;;;4.30;3.60;;;1.20;99.90;;;;;;5019773;28;20045;-81
2024/01/08 08:49:10;;;;;;;5.13;3.13;;;1.20;99.90;;;;;;5019255;28;20041;-80
2024/01/08 08:51:36;;;;;;;6.57;3.17;;;1.20;99.90;;;;;;5027357;28;20048;-82
2024/01/08 08:54:03;;;;;;;7.03;3.30;;;1.20;99.90;;;;;;5030756;28;20029;-81
2024/01/08 08:56:32;;;;;;;3.50;2.88;;;1.20;99.90;;;;;;5030658;28;20033;-81
2024/01/08 08:58:58;;;;;;;4.75;3.90;;;1.20;99.90;;;;;;5030698;28;20507;-81
2024/01/08 09:01:23;;;;;;;4.68;3.10;;;1.20;99.90;;;;;;5025357;28;20120;-83
2024/01/08 09:03:49;;;;;;;6.10;3.15;;;1.20;99.90;;;;;;5028451;28;20053;-81
2024/01/08 09:06:15;;;;;;;5.05;3.50;;;1.20;99.90;;;;;;5029327;28;20061;-81
2024/01/08 09:08:41;;;;;;;4.20;3.35;;;1.20;99.90;;;;;;5029349;28;20425;-81
2024/01/08 09:11:08;;;;;;;4.75;3.50;;;1.20;99.90;;;;;;5012955;28;20501;-83
2024/01/08 09:13:33;;;;;;;6.18;3.22;;;1.20;99.90;;;;;;5014114;28;20025;-82
2024/01/08 09:15:59;;;;;;;3.58;3.20;;;1.20;99.90;;;;;;5032232;28;20363;-82
2024/01/08 09:18:26;;;;;;;7.30;4.05;;;1.30;99.90;;;;;;5028937;28;20033;-82
2024/01/08 09:20:53;;;;;;;5.78;3.53;;;1.20;99.90;;;;;;5030756;28;20060;-82
2024/01/08 09:23:19;;;;;;;4.20;3.58;;;1.30;99.90;;;;;;5030341;28;20060;-82
2024/01/08 09:25:45;;;;;;;6.93;3.13;;;1.30;99.90;;;;;;5029617;28;20033;-82
2024/01/08 09:28:10;;;;;;;3.72;3.10;;;1.20;99.90;;;;;;5031201;28;20025;-82
2024/01/08 09:30:36;;;;;;;3.78;3.15;;;1.30;99.90;;;;;;5030484;28;20045;-82
2024/01/08 09:33:01;;;;;;;5.38;3.42;;;1.30;99.90;;;;;;5024440;28;20365;-82
2024/01/08 09:35:27;;;;;;;5.85;3.22;;;1.30;99.90;;;;;;5030395;28;20501;-81
2024/01/08 09:37:53;;;;;;;4.50;3.47;;;1.30;99.90;;;;;;5030961;28;20033;-82
2024/01/08 09:40:18;;;;;;;4.80;3.40;;;1.30;99.90;;;;;;5029065;28;20036;-82
2024/01/08 09:42:44;;;;;;;4.95;3.25;;;1.30;99.90;;;;;;5031281;28;20018;-82
2024/01/08 09:45:14;;;;;;;3.30;3.00;;;1.30;99.90;;;;;;5028443;28;20504;-82
2024/01/08 09:47:41;;;;;;;5.07;3.60;;;1.30;99.90;;;;;;5030664;28;20152;-82
2024/01/08 09:50:13;;;;;;;5.95;3.30;;;1.30;99.90;;;;;;5017773;28;20045;-82
2024/01/08 09:52:40;;;;;;;4.57;3.88;;;1.30;99.90;;;;;;5027768;28;20381;-82
2024/01/08 09:55:08;;;;;;;5.35;3.42;;;1.30;99.90;;;;;;5029073;28;20030;-82
2024/01/08 09:57:33;;;;;;;5.88;3.42;;;1.30;99.90;;;;;;5030674;28;20021;-82
2024/01/08 09:59:59;;;;;;;3.92;3.53;;;1.30;99.90;;;;;;5030338;28;20033;-83
2024/01/08 10:02:25;;;;;;;4.70;3.58;;;1.30;99.90;;;;;;5028860;28;20038;-82
2024/01/08 10:04:50;;;;;;;5.72;4.07;;;1.30;99.90;;;;;;5031780;28;20109;-83
2024/01/08 10:07:17;;;;;;;4.53;3.85;;;1.30;99.90;;;;;;5030656;28;20022;-82
2024/01/08 10:09:43;;;;;;;4.57;3.85;;;1.90;99.90;;;;;;5031498;28;20029;-82
2024/01/08 10:12:12;;;;;;;4.75;3.50;;;1.30;99.90;;;;;;5028259;28;20087;-81
2024/01/08 10:14:38;;;;;;;4.10;3.58;;;1.30;99.90;;;;;;5030887;28;20025;-82
2024/01/08 10:17:03;;;;;;;4.13;3.65;;;1.40;99.90;;;;;;5028329;28;20025;-82
2024/01/08 10:19:29;;;;;;;4.90;3.90;;;1.30;99.90;;;;;;5031289;28;20472;-81
2024/01/08 10:22:16;;;;;;;6.57;4.10;;;1.40;99.90;;;;;;5017882;28;20037;-82
2024/01/08 10:24:43;;;;;;;5.43;4.00;;;1.40;99.90;;;;;;5011857;28;20037;-82
2024/01/08 10:27:10;;;;;;;4.97;4.38;;;1.40;99.90;;;;;;5028056;28;20456;-82
2024/01/08 10:29:37;;;;;;;6.38;4.00;;;1.40;99.90;;;;;;5029434;28;20056;-83
2024/01/08 10:32:04;;;;;;;7.28;4.05;;;1.40;99.90;;;;;;5028268;28;20080;-85
2024/01/08 10:34:30;;;;;;;6.07;3.30;;;1.40;99.90;;;;;;5023776;28;20052;-85
2024/01/08 10:36:57;;;;;;;6.35;4.38;;;1.40;99.90;;;;;;5027573;28;20052;-82
2024/01/08 10:39:24;;;;;;;8.10;3.45;;;1.40;99.90;;;;;;5032760;28;20079;-83
2024/01/08 10:41:52;;;;;;;8.38;3.78;;;1.40;99.90;;;;;;5031447;28;20076;-82
2024/01/08 10:44:18;;;;;;;11.48;4.38;;;1.30;99.90;;;;;;5034775;28;20022;-80
2024/01/08 10:46:57;;;;;;;6.93;3.97;;;1.30;99.90;;;;;;5030678;28;20036;-84
2024/01/08 10:49:30;;;;;;;7.40;4.75;;;1.30;99.90;;;;;;5030991;28;20045;-83
2024/01/08 10:51:57;;;;;;;7.03;4.80;;;1.30;99.90;;;;;;5023173;28;20088;-83
2024/01/08 10:54:24;;;;;;;6.07;4.07;;;1.40;99.90;;;;;;5030989;28;20477;-84
2024/01/08 10:56:57;;;;;;;5.43;4.45;;;1.40;99.90;;;;;;5033438;28;20061;-85
2024/01/08 10:59:23;;;;;;;8.65;4.32;;;1.40;99.90;;;;;;5032149;28;20033;-84
2024/01/08 11:01:50;;;;;;;5.45;3.83;;;1.40;99.90;;;;;;5035650;28;20037;-84
2024/01/08 11:04:16;;;;;;;6.28;4.07;;;1.40;99.90;;;;;;5025990;28;20034;-89
2024/01/08 11:06:44;;;;;;;7.43;3.70;;;1.40;99.90;;;;;;5019688;28;20481;-84
2024/01/08 11:09:30;;;;;;;5.95;3.58;;;1.40;99.90;;;;;;5031057;28;20116;-85
2024/01/08 11:11:55;;;;;;;6.95;3.75;;;1.40;99.90;;;;;;5034090;28;20041;-85
2024/01/08 11:14:23;;;;;;;3.72;3.30;;;1.40;99.90;;;;;;5030816;28;20477;-84
2024/01/08 11:16:50;;;;;;;4.32;3.55;;;1.50;99.90;;;;;;5031491;28;20026;-84
2024/01/08 11:19:18;;;;;;;6.22;3.90;;;1.50;99.90;;;;;;5031912;28;20136;-85
2024/01/08 11:22:07;;;;;;;4.85;3.75;;;1.50;99.90;;;;;;5031810;28;20040;-83
2024/01/08 11:24:33;;;;;;;3.97;3.17;;;1.50;99.90;;;;;;5027384;28;20022;-86
2024/01/08 11:26:58;;;;;;;4.30;3.65;;;1.50;99.90;;;;;;5019363;28;20037;-88
2024/01/08 11:29:25;;;;;;;4.32;3.78;;;1.50;99.90;;;;;;5033443;28;20075;-85
2024/01/08 11:32:33;;;;;;;4.32;3.28;;;1.50;99.90;;;;;;5028117;28;20041;-87
2024/01/08 11:35:13;;;;;;;7.93;3.63;;;1.50;99.90;;;;;;5022775;28;20033;-86
2024/01/08 11:38:17;;;;;;;5.82;3.63;;;1.40;99.90;;;;;;5000860;28;20059;-85
2024/01/08 11:40:44;;;;;;;5.90;3.95;;;1.40;99.90;;;;;;5026064;28;20049;-82
2024/01/08 11:43:10;;;;;;;4.88;4.07;;;1.40;99.90;;;;;;5026218;28;20091;-82
2024/01/08 11:45:36;;;;;;;5.90;4.28;;;1.50;99.90;;;;;;5024569;28;20030;-84
2024/01/08 11:48:02;;;;;;;6.85;4.10;;;1.40;99.90;;;;;;5028037;28;20033;-85
2024/01/08 11:50:28;;;;;;;5.20;4.22;;;1.50;99.90;;;;;;5026731;28;20061;-84
2024/01/08 11:52:59;;;;;;;5.55;4.20;;;2.10;99.90;;;;;;5022393;28;20484;-84
2024/01/08 11:55:25;;;;;;;12.57;4.68;;;1.50;99.90;;;;;;5024950;28;20068;-83
2024/01/08 11:57:52;;;;;;;5.53;3.80;;;1.50;99.90;;;;;;5025654;28;20030;-83
2024/01/08 12:00:19;;;;;;;6.30;4.03;;;1.50;99.90;;;;;;5028361;28;20468;-83
2024/01/08 12:02:45;;;;;;;7.15;3.92;;;1.60;99.90;;;;;;5024536;28;20029;-84
2024/01/08 12:05:14;;;;;;;7.15;3.90;;;1.60;99.90;;;;;;5027205;28;20029;-82
2024/01/08 12:07:40;;;;;;;5.00;3.60;;;1.60;99.90;;;;;;5024595;28;20033;-83
2024/01/08 12:10:08;;;;;;;5.80;3.60;;;1.60;99.90;;;;;;5025090;28;20029;-83
2024/01/08 12:12:35;;;;;;;4.05;3.65;;;1.70;99.90;;;;;;5026206;28;20044;-82
2024/01/08 12:15:01;;;;;;;4.50;3.45;;;1.70;99.90;;;;;;5023379;28;20044;-84
2024/01/08 12:17:27;;;;;;;3.55;3.20;;;1.60;99.90;;;;;;5025284;28;20053;-83
2024/01/08 12:19:55;;;;;;;4.10;3.63;;;1.60;99.90;;;;;;5027144;28;20037;-83
2024/01/08 12:22:22;;;;;;;3.95;3.42;;;1.50;99.90;;;;;;5020904;28;20028;-82
2024/01/08 12:24:52;;;;;;;4.78;3.13;;;1.50;99.90;;;;;;5024689;28;20044;-83
2024/01/08 12:27:22;;;;;;;4.22;3.20;;;1.60;99.90;;;;;;5023227;28;20072;-83
2024/01/08 12:29:50;;;;;;;4.07;2.90;;;1.60;99.90;;;;;;5028383;28;20044;-83
2024/01/08 12:32:20;;;;;;;3.08;2.75;;;1.60;99.90;;;;;;5023687;28;20065;-83
2024/01/08 12:34:45;;;;;;;5.93;3.28;;;1.60;99.90;;;;;;5027153;28;20033;-83
2024/01/08 12:37:13;;;;;;;3.90;2.70;;;1.60;99.90;;;;;;5022199;28;20026;-83
2024/01/08 12:39:39;;;;;;;5.00;3.10;;;1.60;99.90;;;;;;5023365;28;20557;-82
2024/01/08 12:42:09;;;;;;;4.07;3.13;;;1.60;99.90;;;;;;5019975;28;20075;-83
2024/01/08 12:44:36;;;;;;;5.72;3.28;;;1.50;99.90;;;;;;5028764;28;20348;-84
2024/01/08 12:47:04;;;;;;;4.00;3.03;;;1.50;99.90;;;;;;5027079;28;20052;-84
2024/01/08 12:49:30;;;;;;;9.80;3.40;;;1.50;99.90;;;;;;5026426;28;20507;-83
2024/01/08 12:51:58;;;;;;;4.97;3.17;;;1.60;99.90;;;;;;5026186;28;20049;-83
2024/01/08 12:54:24;;;;;;;12.98;3.22;;;1.60;99.90;;;;;;5025563;28;20591;-86